createdAt,value
2019-06-20T00:00:48.197Z,99.90
2019-06-20T00:03:17.573Z,99.90
2019-06-20T00:05:46.963Z,99.90
2019-06-20T00:08:16.343Z,99.90
2019-06-20T00:10:45.735Z,99.90
2019-06-20T00:13:15.053Z,99.90
2019-06-20T00:15:44.392Z,99.90
2019-06-20T00:18:13.713Z,99.90
2019-06-20T00:20:44.059Z,99.90
2019-06-20T00:23:13.506Z,99.90
2019-06-20T00:25:42.841Z,99.90
2019-06-20T00:28:12.220Z,99.90
2019-06-20T00:30:41.645Z,99.90
2019-06-20T00:33:10.989Z,99.90
2019-06-20T00:35:40.317Z,99.90
2019-06-20T00:38:09.628Z,99.90
2019-06-20T00:40:38.956Z,99.90
2019-06-20T00:43:17.452Z,99.90
2019-06-20T00:45:39.278Z,99.90
2019-06-20T00:48:08.672Z,99.90
2019-06-20T00:50:37.998Z,99.90
2019-06-20T00:53:07.388Z,99.90
2019-06-20T00:55:36.789Z,99.90
2019-06-20T00:58:06.118Z,99.90
2019-06-20T01:00:35.483Z,99.90
2019-06-20T01:03:05.158Z,99.90
2019-06-20T01:05:34.628Z,99.90
2019-06-20T01:08:04.993Z,99.90
2019-06-20T01:10:34.317Z,99.90
2019-06-20T01:13:03.721Z,99.90
2019-06-20T01:15:33.020Z,99.90
2019-06-20T01:18:02.349Z,99.90
2019-06-20T01:20:31.664Z,99.90
2019-06-20T01:23:00.997Z,99.90
2019-06-20T01:25:38.683Z,99.90
2019-06-20T01:28:08.072Z,99.90
2019-06-20T01:30:37.389Z,99.90
2019-06-20T01:33:07.248Z,99.90
2019-06-20T01:35:36.665Z,99.90
2019-06-20T01:38:06.057Z,99.90
2019-06-20T01:40:35.378Z,99.90
2019-06-20T01:43:04.770Z,99.90
2019-06-20T01:45:34.089Z,99.90
2019-06-20T01:48:03.560Z,99.90
2019-06-20T01:50:32.969Z,99.90
2019-06-20T01:53:02.357Z,99.90
2019-06-20T01:55:31.698Z,99.90
2019-06-20T01:58:01.362Z,99.90
2019-06-20T02:00:50.132Z,99.90
2019-06-20T02:03:21.130Z,99.90
2019-06-20T02:05:50.534Z,99.90
2019-06-20T02:08:19.963Z,99.90
2019-06-20T02:10:49.386Z,99.90
2019-06-20T02:13:18.741Z,99.90
2019-06-20T02:15:48.068Z,99.90
2019-06-20T02:18:17.407Z,99.90
2019-06-20T02:20:49.809Z,99.90
2019-06-20T02:23:19.403Z,99.90
2019-06-20T02:25:48.729Z,99.90
2019-06-20T02:28:18.122Z,99.90
2019-06-20T02:30:47.608Z,99.90
2019-06-20T02:33:16.940Z,99.90
2019-06-20T02:35:47.316Z,99.90
2019-06-20T02:38:16.642Z,99.90
2019-06-20T02:40:45.970Z,99.90
2019-06-20T02:43:15.357Z,99.90
2019-06-20T02:45:44.673Z,99.90
2019-06-20T02:48:13.992Z,99.90
2019-06-20T02:50:43.315Z,99.90
2019-06-20T02:53:12.653Z,99.90
2019-06-20T02:55:41.983Z,99.90
2019-06-20T02:58:11.318Z,99.90
2019-06-20T03:00:57.496Z,99.90
2019-06-20T03:03:28.555Z,99.90
2019-06-20T03:05:58.205Z,99.90
2019-06-20T03:08:27.602Z,99.90
2019-06-20T03:10:56.916Z,99.90
2019-06-20T03:13:26.237Z,99.90
2019-06-20T03:15:55.561Z,99.90
2019-06-20T03:18:24.903Z,99.90
2019-06-20T03:20:55.197Z,99.90
2019-06-20T03:23:24.530Z,99.90
2019-06-20T03:25:53.947Z,99.90
2019-06-20T03:28:23.270Z,99.90
2019-06-20T03:30:52.590Z,99.90
2019-06-20T03:33:21.948Z,99.90
2019-06-20T03:35:51.294Z,99.90
2019-06-20T03:38:20.625Z,99.90
2019-06-20T03:40:50.921Z,99.90
2019-06-20T03:43:20.275Z,99.90
2019-06-20T03:45:49.606Z,99.90
2019-06-20T03:48:20.374Z,99.90
2019-06-20T03:50:49.651Z,99.90
2019-06-20T03:53:19.322Z,99.90
2019-06-20T03:55:48.627Z,99.90
2019-06-20T03:58:17.962Z,99.90
2019-06-20T04:00:47.275Z,99.90
2019-06-20T04:03:16.602Z,99.90
2019-06-20T04:05:45.943Z,99.90
2019-06-20T04:08:15.252Z,99.90
2019-06-20T04:10:44.573Z,99.90
2019-06-20T04:13:13.893Z,99.90
2019-06-20T04:15:43.215Z,99.90
2019-06-20T04:18:12.548Z,99.90
2019-06-20T04:20:41.932Z,99.90
2019-06-20T04:23:11.265Z,99.90
2019-06-20T04:25:40.595Z,99.90
2019-06-20T04:28:09.926Z,99.90
2019-06-20T04:30:39.241Z,99.90
2019-06-20T04:33:08.775Z,99.90
2019-06-20T04:35:38.168Z,99.90
2019-06-20T04:38:07.984Z,99.90
2019-06-20T04:40:37.441Z,99.90
2019-06-20T04:43:06.753Z,99.90
2019-06-20T04:45:40.657Z,99.90
2019-06-20T04:48:09.992Z,99.90
2019-06-20T04:50:39.313Z,99.90
2019-06-20T04:53:08.664Z,99.90
2019-06-20T04:55:37.967Z,99.90
2019-06-20T04:58:07.478Z,99.90
2019-06-20T05:00:36.871Z,99.90
2019-06-20T05:03:06.205Z,99.90
2019-06-20T05:05:43.188Z,99.90
2019-06-20T05:08:11.175Z,99.90
2019-06-20T05:10:40.501Z,99.90
2019-06-20T05:13:09.833Z,99.90
2019-06-20T05:15:52.062Z,99.90
2019-06-20T05:18:10.194Z,99.90
2019-06-20T05:20:41.110Z,99.90
2019-06-20T05:23:10.517Z,99.90
2019-06-20T05:25:39.906Z,99.90
2019-06-20T05:28:09.225Z,99.90
2019-06-20T05:30:38.641Z,99.90
2019-06-20T05:33:07.972Z,99.90
2019-06-20T05:35:40.401Z,99.90
2019-06-20T05:38:09.705Z,99.90
2019-06-20T05:40:41.829Z,99.90
2019-06-20T05:43:11.202Z,99.90
2019-06-20T05:45:44.373Z,99.90
2019-06-20T05:48:12.081Z,99.90
2019-06-20T05:50:41.760Z,99.90
2019-06-20T05:53:11.210Z,99.90
2019-06-20T05:55:40.703Z,99.90
2019-06-20T05:58:10.050Z,99.90
2019-06-20T06:00:42.494Z,99.90
2019-06-20T06:03:13.766Z,99.90
2019-06-20T06:06:02.077Z,99.90
2019-06-20T06:08:18.653Z,99.90
2019-06-20T06:10:55.683Z,99.90
2019-06-20T06:13:25.172Z,99.90
2019-06-20T06:15:56.204Z,99.90
2019-06-20T06:18:28.298Z,99.90
2019-06-20T06:20:59.359Z,99.90
2019-06-20T06:23:28.869Z,99.90
2019-06-20T06:25:58.619Z,99.90
2019-06-20T06:28:28.008Z,99.90
2019-06-20T06:30:59.219Z,99.90
2019-06-20T06:33:30.625Z,99.90
2019-06-20T06:36:02.997Z,99.90
2019-06-20T06:38:35.110Z,99.90
2019-06-20T06:41:04.615Z,99.90
2019-06-20T06:43:34.066Z,99.90
2019-06-20T06:46:03.405Z,99.90
2019-06-20T06:48:36.734Z,99.90
2019-06-20T06:51:05.286Z,99.90
2019-06-20T06:53:46.969Z,99.90
2019-06-20T06:56:26.706Z,99.90
2019-06-20T06:58:56.047Z,99.90
2019-06-20T07:01:25.685Z,99.90
2019-06-20T07:03:56.738Z,99.90
2019-06-20T07:06:27.049Z,99.90
2019-06-20T07:08:57.933Z,99.90
2019-06-20T07:11:27.248Z,99.90
2019-06-20T07:13:56.578Z,99.90
2019-06-20T07:16:28.598Z,99.90
2019-06-20T07:18:57.924Z,99.90
2019-06-20T07:21:27.419Z,99.90
2019-06-20T07:23:58.380Z,99.90
2019-06-20T07:26:29.994Z,99.90
2019-06-20T07:28:59.362Z,99.90
2019-06-20T07:31:28.711Z,99.90
2019-06-20T07:34:01.222Z,99.90
2019-06-20T07:36:31.629Z,99.90
2019-06-20T07:39:00.945Z,99.90
2019-06-20T07:41:31.889Z,99.90
2019-06-20T07:44:01.215Z,99.90
2019-06-20T07:46:30.545Z,99.90
2019-06-20T07:49:01.183Z,99.90
2019-06-20T07:51:30.467Z,99.90
2019-06-20T07:53:59.813Z,99.90
2019-06-20T07:56:30.761Z,99.90
2019-06-20T07:59:00.087Z,99.90
2019-06-20T08:01:30.815Z,99.90
2019-06-20T08:04:00.188Z,99.90
2019-06-20T08:06:37.972Z,99.90
2019-06-20T08:09:22.245Z,99.90
2019-06-20T08:12:10.339Z,99.90
2019-06-20T08:14:42.580Z,99.90
2019-06-20T08:17:13.491Z,99.90
2019-06-20T08:19:49.665Z,99.90
2019-06-20T08:22:32.830Z,99.90
2019-06-20T08:25:03.281Z,99.90
2019-06-20T08:28:04.925Z,99.90
2019-06-20T08:30:38.359Z,99.90
2019-06-20T08:33:11.839Z,99.90
2019-06-20T08:35:48.726Z,99.90
2019-06-20T08:38:27.071Z,99.90
2019-06-20T08:41:00.218Z,99.90
2019-06-20T08:43:57.092Z,99.90
2019-06-20T08:47:38.109Z,99.90
2019-06-20T08:49:59.743Z,99.90
2019-06-20T08:52:41.455Z,99.90
2019-06-20T08:58:36.564Z,99.90
2019-06-20T09:01:36.905Z,99.90
2019-06-20T09:04:27.535Z,99.90
2019-06-20T09:06:59.177Z,99.90
2019-06-20T09:09:29.513Z,99.90
2019-06-20T09:24:28.193Z,99.90
2019-06-20T09:27:21.157Z,99.90
2019-06-20T09:28:14.788Z,99.90
2019-06-20T09:29:54.523Z,99.90
2019-06-20T09:36:33.482Z,99.90
2019-06-20T09:39:11.744Z,99.90
2019-06-20T09:42:09.598Z,99.90
2019-06-20T09:44:52.634Z,99.90
2019-06-20T09:56:59.475Z,99.90
2019-06-20T10:02:26.977Z,99.90
2019-06-20T10:03:05.440Z,99.90
2019-06-20T10:04:58.277Z,99.90
2019-06-20T10:11:03.776Z,99.90
2019-06-20T10:14:04.636Z,99.90
2019-06-20T10:22:54.630Z,99.90
2019-06-20T10:25:51.523Z,99.90
2019-06-20T10:28:46.300Z,99.90
2019-06-20T10:34:39.768Z,99.90
2019-06-20T10:37:04.970Z,99.90
2019-06-20T10:40:09.991Z,99.90
2019-06-20T10:43:14.543Z,99.90
2019-06-20T10:45:45.816Z,99.90
2019-06-20T10:48:20.989Z,99.90
2019-06-20T11:00:32.681Z,99.90
2019-06-20T11:03:06.524Z,99.90
2019-06-20T11:05:42.294Z,99.90
2019-06-20T11:08:22.961Z,99.90
2019-06-20T11:10:52.347Z,99.90
2019-06-20T11:13:23.316Z,99.90
2019-06-20T11:16:01.554Z,99.90
2019-06-20T11:18:38.290Z,99.90
2019-06-20T11:27:03.203Z,99.90
2019-06-20T11:33:00.769Z,99.90
2019-06-20T11:35:43.436Z,99.90
2019-06-20T11:38:21.927Z,99.90
2019-06-20T11:41:15.882Z,99.90
2019-06-20T11:44:08.451Z,99.90
2019-06-20T11:46:56.253Z,99.90
2019-06-20T11:49:27.562Z,99.90
2019-06-20T11:52:01.439Z,99.90
2019-06-20T11:57:52.188Z,99.90
2019-06-20T12:01:03.076Z,99.90
2019-06-20T12:03:27.220Z,99.90
2019-06-20T12:06:17.139Z,99.90
2019-06-20T12:08:49.149Z,99.90
2019-06-20T12:11:18.497Z,99.90
2019-06-20T12:13:48.571Z,99.90
2019-06-20T12:16:19.724Z,99.90
2019-06-20T12:19:18.801Z,99.90
2019-06-20T12:21:58.137Z,99.90
2019-06-20T12:24:41.656Z,99.90
2019-06-20T12:27:16.433Z,99.90
2019-06-20T12:39:51.648Z,99.90
2019-06-20T12:43:07.148Z,99.10
2019-06-20T12:45:40.052Z,99.20
2019-06-20T12:48:41.226Z,97.30
2019-06-20T12:51:14.036Z,98.30
2019-06-20T12:59:35.408Z,99.30
2019-06-20T13:02:09.304Z,99.30
2019-06-20T13:05:54.130Z,97.70
2019-06-20T13:11:07.723Z,97.30
2019-06-20T13:16:16.509Z,98.20
2019-06-20T13:18:46.290Z,98.80
2019-06-20T13:21:27.114Z,99.50
2019-06-20T13:23:56.670Z,99.90
2019-06-20T13:26:28.578Z,99.90
2019-06-20T13:29:04.037Z,99.90
2019-06-20T13:31:29.171Z,99.90
2019-06-20T13:33:58.561Z,99.90
2019-06-20T13:36:27.901Z,99.90
2019-06-20T13:38:58.328Z,99.90
2019-06-20T13:41:27.666Z,99.90
2019-06-20T13:43:56.973Z,99.90
2019-06-20T13:46:26.297Z,99.90
2019-06-20T13:48:55.637Z,99.90
2019-06-20T13:51:24.971Z,99.90
2019-06-20T13:53:54.362Z,99.90
2019-06-20T13:56:23.705Z,99.90
2019-06-20T13:58:54.141Z,99.90
2019-06-20T14:01:24.516Z,99.90
2019-06-20T14:03:53.821Z,99.90
2019-06-20T14:06:23.145Z,98.20
2019-06-20T14:08:52.468Z,98.60
2019-06-20T14:11:21.863Z,98.80
2019-06-20T14:13:53.036Z,98.80
2019-06-20T14:16:22.583Z,97.40
2019-06-20T14:18:52.378Z,97.20
2019-06-20T14:21:23.792Z,98.20
2019-06-20T14:23:53.886Z,99.80
2019-06-20T14:26:23.349Z,99.90
2019-06-20T14:28:52.669Z,99.90
2019-06-20T14:31:22.016Z,99.90
2019-06-20T14:33:51.414Z,99.90
2019-06-20T14:36:20.750Z,99.90
2019-06-20T14:38:51.480Z,99.90
2019-06-20T14:41:20.971Z,99.90
2019-06-20T14:43:51.701Z,99.90
2019-06-20T14:46:21.197Z,99.90
2019-06-20T14:48:50.525Z,99.90
2019-06-20T14:51:19.852Z,99.90
2019-06-20T14:53:49.430Z,99.90
2019-06-20T14:56:19.986Z,99.90
2019-06-20T14:58:49.293Z,99.90
2019-06-20T15:01:18.623Z,99.90
2019-06-20T15:03:49.053Z,99.90
2019-06-20T15:06:18.451Z,99.90
2019-06-20T15:08:49.197Z,99.60
2019-06-20T15:11:18.850Z,99.90
2019-06-20T15:13:49.328Z,99.80
2019-06-20T15:16:18.794Z,99.10
2019-06-20T15:18:50.206Z,99.30
2019-06-20T15:21:19.189Z,98.70
2019-06-20T15:23:49.508Z,98.40
2019-06-20T15:26:19.527Z,98.80
2019-06-20T15:28:49.752Z,98.70
2019-06-20T15:31:19.960Z,99.20
2019-06-20T15:33:51.492Z,97.60
2019-06-20T15:36:20.441Z,98.30
2019-06-20T15:38:50.993Z,96.40
2019-06-20T15:41:20.549Z,96.80
2019-06-20T15:43:49.989Z,96.20
2019-06-20T15:46:19.382Z,96.50
2019-06-20T15:48:48.768Z,97.00
2019-06-20T15:51:18.075Z,96.90
2019-06-20T15:53:47.430Z,95.70
2019-06-20T15:56:16.743Z,94.30
2019-06-20T15:58:46.060Z,94.20
2019-06-20T16:01:15.391Z,95.50
2019-06-20T16:03:44.723Z,95.70
2019-06-20T16:06:14.053Z,97.10
2019-06-20T16:08:43.389Z,98.00
2019-06-20T16:11:12.714Z,99.00
2019-06-20T16:13:42.061Z,98.80
2019-06-20T16:16:11.465Z,99.10
2019-06-20T16:18:40.840Z,99.10
2019-06-20T16:21:10.154Z,99.30
2019-06-20T16:23:39.475Z,99.80
2019-06-20T16:26:08.791Z,99.00
2019-06-20T16:28:38.105Z,99.90
2019-06-20T16:31:13.300Z,99.90
2019-06-20T16:33:41.071Z,99.90
2019-06-20T16:36:13.351Z,99.90
2019-06-20T16:38:42.699Z,99.90
2019-06-20T16:41:12.024Z,99.90
2019-06-20T16:59:01.850Z,99.90
2019-06-20T17:08:22.444Z,99.90
2019-06-20T17:10:51.830Z,99.90
2019-06-20T17:16:50.428Z,99.90
2019-06-20T17:21:51.042Z,99.90
2019-06-20T17:23:22.990Z,99.90
2019-06-20T17:26:08.725Z,99.90
2019-06-20T17:35:16.375Z,99.90
2019-06-20T17:41:27.959Z,99.90
2019-06-20T17:44:08.323Z,99.90
2019-06-20T17:46:46.044Z,99.90
2019-06-20T17:49:16.992Z,99.90
2019-06-20T17:51:49.299Z,99.90
2019-06-20T17:54:19.240Z,99.90
2019-06-20T18:00:00.448Z,99.90
2019-06-20T18:02:39.097Z,99.90
2019-06-20T18:05:24.333Z,99.90
2019-06-20T18:08:15.149Z,99.90
2019-06-20T18:10:46.700Z,99.90
2019-06-20T18:13:24.972Z,99.90
2019-06-20T18:16:24.109Z,99.90
2019-06-20T18:18:44.942Z,99.90
2019-06-20T18:21:21.713Z,99.90
2019-06-20T18:24:00.177Z,99.90
2019-06-20T18:26:37.416Z,99.90
2019-06-20T18:32:26.616Z,99.90
2019-06-20T18:35:27.827Z,99.90
2019-06-20T18:37:58.813Z,99.90
2019-06-20T18:40:28.202Z,99.90
2019-06-20T18:42:59.175Z,99.90
2019-06-20T18:48:54.313Z,99.90
2019-06-20T18:52:09.976Z,99.90
2019-06-20T18:54:50.146Z,99.90
2019-06-20T18:57:41.214Z,99.90
2019-06-20T19:17:53.173Z,99.90
2019-06-20T19:19:50.599Z,99.90
2019-06-20T19:22:44.693Z,99.90
2019-06-20T19:25:21.098Z,99.90
2019-06-20T19:27:56.309Z,99.90
2019-06-20T19:31:03.626Z,99.90
2019-06-20T19:33:52.016Z,99.90
2019-06-20T19:36:24.985Z,99.90
2019-06-20T19:39:07.451Z,99.90
2019-06-20T19:41:41.069Z,99.90
2019-06-20T19:44:14.696Z,99.90
2019-06-20T19:46:44.144Z,99.90
2019-06-20T19:49:14.438Z,99.90
2019-06-20T19:51:43.809Z,99.90
2019-06-20T19:54:19.366Z,99.90
2019-06-20T19:56:53.805Z,99.90
2019-06-20T19:59:23.222Z,99.90
2019-06-20T20:02:16.981Z,99.90
2019-06-20T20:04:50.941Z,99.90
2019-06-20T20:07:20.775Z,99.90
2019-06-20T20:10:08.115Z,99.90
2019-06-20T20:12:38.494Z,99.90
2019-06-20T20:21:37.465Z,99.90
2019-06-20T20:22:18.725Z,99.90
2019-06-20T20:24:09.666Z,99.90
2019-06-20T20:26:45.684Z,99.90
2019-06-20T20:29:21.978Z,99.90
2019-06-20T20:31:54.169Z,99.90
2019-06-20T20:35:34.852Z,99.90
2019-06-20T20:37:12.502Z,99.90
2019-06-20T20:39:50.344Z,99.90
2019-06-20T20:45:32.349Z,99.90
2019-06-20T20:48:04.313Z,99.90
2019-06-20T20:50:37.810Z,99.90
2019-06-20T20:53:19.177Z,99.90
2019-06-20T20:56:02.500Z,99.90
2019-06-20T20:58:26.136Z,99.90
2019-06-20T21:01:00.970Z,99.90
2019-06-20T21:03:36.919Z,99.90
2019-06-20T21:06:10.837Z,99.90
2019-06-20T21:08:44.984Z,99.90
2019-06-20T21:11:14.356Z,99.90
2019-06-20T21:13:43.717Z,99.90
2019-06-20T21:16:13.055Z,99.90
2019-06-20T21:18:42.372Z,99.90
2019-06-20T21:21:12.764Z,99.90
2019-06-20T21:23:54.413Z,99.90
2019-06-20T21:26:23.747Z,99.90
2019-06-20T21:29:17.010Z,99.90
2019-06-20T21:31:46.420Z,99.90
2019-06-20T21:34:15.739Z,99.90
2019-06-20T21:36:45.146Z,99.90
2019-06-20T21:39:24.809Z,99.90
2019-06-20T21:42:04.226Z,99.90
2019-06-20T21:44:32.157Z,99.90
2019-06-20T21:47:03.090Z,99.90
2019-06-20T21:49:32.407Z,99.90
2019-06-20T21:52:01.727Z,99.90
2019-06-20T21:54:31.046Z,99.90
2019-06-20T21:57:02.442Z,99.90
2019-06-20T21:59:37.191Z,99.90
2019-06-20T22:02:07.443Z,99.90
2019-06-20T22:04:36.780Z,99.90
2019-06-20T22:07:06.106Z,99.90
2019-06-20T22:09:35.693Z,99.90
2019-06-20T22:12:06.573Z,99.90
2019-06-20T22:14:35.954Z,99.90
2019-06-20T22:17:05.278Z,99.90
2019-06-20T22:19:34.586Z,99.90
2019-06-20T22:22:03.983Z,99.90
2019-06-20T22:24:33.307Z,99.90
2019-06-20T22:27:02.639Z,99.90
2019-06-20T22:29:31.949Z,99.90
2019-06-20T22:32:01.276Z,99.90
2019-06-20T22:34:30.592Z,99.90
2019-06-20T22:36:59.905Z,99.90
2019-06-20T22:39:29.237Z,99.90
2019-06-20T22:41:58.607Z,99.90
2019-06-20T22:44:27.910Z,99.90
2019-06-20T22:46:57.223Z,99.90
2019-06-20T22:49:26.563Z,99.90
2019-06-20T22:51:55.896Z,99.90
2019-06-20T22:54:25.221Z,99.90
2019-06-20T22:56:54.537Z,99.90
2019-06-20T22:59:23.879Z,99.90
2019-06-20T23:01:53.213Z,99.90
2019-06-20T23:04:22.543Z,99.90
2019-06-20T23:06:56.368Z,99.90
2019-06-20T23:09:22.961Z,99.90
2019-06-20T23:11:53.252Z,99.90
2019-06-20T23:14:22.621Z,99.90
2019-06-20T23:16:51.954Z,99.90
2019-06-20T23:19:21.331Z,99.90
2019-06-20T23:21:50.641Z,99.90
2019-06-20T23:24:19.961Z,99.90
2019-06-20T23:26:49.285Z,99.90
2019-06-20T23:29:22.231Z,99.90
2019-06-20T23:31:55.140Z,99.90
2019-06-20T23:34:24.462Z,99.90
2019-06-20T23:36:53.787Z,99.90
2019-06-20T23:39:24.066Z,99.90
2019-06-20T23:41:53.412Z,99.90
2019-06-20T23:44:24.331Z,99.90
2019-06-20T23:46:53.643Z,99.90
2019-06-20T23:49:22.996Z,99.90
2019-06-20T23:51:59.424Z,99.90
2019-06-20T23:54:28.741Z,99.90
2019-06-20T23:56:58.089Z,99.90
2019-06-20T23:59:28.364Z,99.90
